Time;durP1;ratioP1;P1;durP2;ratioP2;P2;SDS_P1;SDS_P2;PMS_P1;PMS_P2;Temp;Humidity;BMP_temperature;BMP_pressure;BME280_temperature;BME280_humidity;BME280_pressure;Samples;Min_cycle;Max_cycle;Signal;HPM_P1;HPM_P2
2021/01/21 00:01:52;;;;;;;2.40;1.23;;;;;;;0.60;100.00;97683.16;3790370;77;396104;-75
2021/01/21 00:07:13;;;;;;;1.33;1.23;;;;;;;0.60;100.00;97684.52;3791177;77;383568;-74
2021/01/21 00:12:35;;;;;;;3.53;1.73;;;;;;;0.55;100.00;97674.80;3790248;77;396076;-74
2021/01/21 00:17:56;;;;;;;3.20;3.00;;;;;;;0.55;100.00;97664.56;3790497;77;392947;-74
2021/01/21 00:23:18;;;;;;;1.63;1.53;;;;;;;0.55;100.00;97663.98;3790767;77;392148;-73
2021/01/21 00:28:39;;;;;;;1.90;1.47;;;;;;;0.54;100.00;97667.06;3790945;77;383572;-74
2021/01/21 00:34:00;;;;;;;3.93;1.97;;;;;;;0.55;100.00;97658.57;3833380;76;395066;-74
2021/01/21 00:39:21;;;;;;;33.63;3.03;;;;;;;0.59;100.00;97658.05;3846975;76;390240;-74
2021/01/21 00:44:42;;;;;;;1.07;0.97;;;;;;;0.60;100.00;97652.84;3847395;76;392130;-74
2021/01/21 00:50:04;;;;;;;2.60;2.40;;;;;;;0.66;100.00;97654.63;3846816;76;393984;-74
2021/01/21 00:55:25;;;;;;;4.57;2.87;;;;;;;0.67;100.00;97648.08;3847281;76;392923;-73
2021/01/21 01:00:46;;;;;;;2.93;1.30;;;;;;;0.67;100.00;97645.37;3846944;76;393985;-74
2021/01/21 01:06:07;;;;;;;0.90;0.70;;;;;;;0.65;100.00;97634.92;3848172;76;383599;-75
2021/01/21 01:11:28;;;;;;;1.53;1.37;;;;;;;0.60;100.00;97628.50;3847024;76;396333;-74
2021/01/21 01:16:50;;;;;;;1.80;1.60;;;;;;;0.64;100.00;97635.30;3847205;76;390078;-74
2021/01/21 01:22:12;;;;;;;1.43;1.33;;;;;;;0.51;100.00;97628.01;3847089;76;396110;-74
2021/01/21 01:27:34;;;;;;;1.23;1.13;;;;;;;0.46;100.00;97631.61;3846760;76;392950;-75
2021/01/21 01:32:55;;;;;;;1.63;0.97;;;;;;;0.34;100.00;97620.45;3847288;76;394054;-74
2021/01/21 01:38:16;;;;;;;1.67;1.57;;;;;;;0.32;100.00;97627.39;3847411;76;383851;-74
2021/01/21 01:43:38;;;;;;;4.17;3.40;;;;;;;0.33;100.00;97617.55;3846849;76;396146;-74
2021/01/21 01:49:01;;;;;;;5.00;2.00;;;;;;;0.28;100.00;97617.84;3846980;76;396097;-74
2021/01/21 01:54:22;;;;;;;1.20;0.97;;;;;;;0.27;100.00;97613.61;3847438;76;391866;-75
2021/01/21 01:59:44;;;;;;;1.10;0.90;;;;;;;0.42;100.00;97603.72;3848086;76;387848;-74
2021/01/21 02:05:07;;;;;;;10.93;2.00;;;;;;;0.46;100.00;97583.69;3846971;76;396131;-74
2021/01/21 02:10:28;;;;;;;2.60;1.83;;;;;;;0.52;100.00;97588.20;3846912;76;396071;-74
2021/01/21 02:15:56;;;;;;;3.97;2.70;;;;;;;0.47;100.00;97581.78;3846981;76;396110;-74
2021/01/21 02:21:35;;;;;;;1.57;1.47;;;;;;;0.55;100.00;97576.65;3848114;76;387811;-74
2021/01/21 02:26:59;;;;;;;1.70;1.60;;;;;;;0.58;100.00;97578.59;3846900;76;395041;-74
2021/01/21 02:32:31;;;;;;;1.20;1.00;;;;;;;0.79;100.00;97576.33;3847531;76;387704;-74
2021/01/21 02:37:55;;;;;;;2.53;1.70;;;;;;;0.71;100.00;97569.85;3847770;76;396076;-74
2021/01/21 02:43:16;;;;;;;1.60;1.33;;;;;;;0.72;100.00;97538.17;3848682;76;396133;-74
2021/01/21 02:48:37;;;;;;;0.90;0.70;;;;;;;0.77;100.00;97556.77;3849825;76;383599;-74
2021/01/21 02:54:13;;;;;;;1.10;1.00;;;;;;;0.86;100.00;97525.53;3847767;76;387774;-74
2021/01/21 02:59:38;;;;;;;1.37;1.27;;;;;;;0.94;100.00;97510.91;3847327;76;389827;-74
2021/01/21 03:05:00;;;;;;;0.90;0.73;;;;;;;1.02;100.00;97501.13;3847870;76;383996;-74
2021/01/21 03:10:22;;;;;;;1.10;1.00;;;;;;;1.04;100.00;97489.91;3847220;76;395312;-74
2021/01/21 03:15:43;;;;;;;1.23;1.13;;;;;;;1.08;100.00;97479.31;3847445;76;391866;-74
2021/01/21 03:21:05;;;;;;;1.17;1.07;;;;;;;1.12;100.00;97477.98;3847492;76;383540;-74
2021/01/21 03:26:26;;;;;;;1.23;1.13;;;;;;;1.10;100.00;97472.95;3847341;76;396301;-74
2021/01/21 03:31:47;;;;;;;2.40;1.00;;;;;;;1.31;100.00;97462.84;3846908;76;394251;-75
2021/01/21 03:37:08;;;;;;;1.10;1.00;;;;;;;1.36;100.00;97459.77;3847780;76;383579;-74
2021/01/21 03:42:29;;;;;;;1.10;1.00;;;;;;;1.31;100.00;97458.77;3847818;76;383835;-74
2021/01/21 03:47:50;;;;;;;3.33;1.40;;;;;;;1.68;100.00;97472.34;3847130;76;383850;-74
2021/01/21 03:53:11;;;;;;;0.90;0.80;;;;;;;1.87;100.00;97476.88;3847289;76;392186;-75
2021/01/21 03:58:33;;;;;;;0.90;0.60;;;;;;;1.90;100.00;97474.73;3847897;76;387832;-74
2021/01/21 04:03:54;;;;;;;1.40;0.83;;;;;;;2.13;100.00;97469.80;3847702;76;389944;-74
2021/01/21 04:09:15;;;;;;;1.93;1.30;;;;;;;1.97;100.00;97470.72;3847205;76;387793;-74
2021/01/21 04:14:37;;;;;;;0.80;0.50;;;;;;;1.84;100.00;97464.06;3848100;76;383571;-74
2021/01/21 04:19:58;;;;;;;1.50;1.40;;;;;;;1.89;100.00;97456.95;3849188;76;383617;-76
2021/01/21 04:25:19;;;;;;;0.80;0.40;;;;;;;2.03;100.00;97460.26;3847991;76;383574;-74
2021/01/21 04:30:40;;;;;;;1.00;0.87;;;;;;;2.04;100.00;97450.41;3847629;76;383803;-74
2021/01/21 04:36:01;;;;;;;1.23;0.80;;;;;;;2.50;100.00;97443.89;3847817;76;385666;-75
2021/01/21 04:41:22;;;;;;;0.80;0.40;;;;;;;3.89;100.00;97439.42;3847763;76;383539;-74
2021/01/21 04:46:44;;;;;;;0.80;0.50;;;;;;;3.99;100.00;97429.28;3847798;76;383576;-75
2021/01/21 04:52:05;;;;;;;1.00;0.80;;;;;;;4.38;98.49;97419.55;3847679;76;391862;-74
2021/01/21 04:57:32;;;;;;;1.40;0.50;;;;;;;4.24;100.00;97420.41;3847337;76;390067;-75
2021/01/21 05:02:54;;;;;;;1.13;1.03;;;;;;;4.19;100.00;97409.16;3849171;76;383779;-74
2021/01/21 05:08:16;;;;;;;0.80;0.60;;;;;;;4.35;98.15;97408.09;3847914;76;383543;-75
2021/01/21 05:13:38;;;;;;;1.00;0.60;;;;;;;4.44;97.19;97396.92;3847710;76;383582;-75
2021/01/21 05:19:02;;;;;;;0.80;0.40;;;;;;;4.46;97.69;97401.39;3847934;76;383568;-75
2021/01/21 05:24:24;;;;;;;0.80;0.50;;;;;;;4.47;97.71;97400.22;3849930;76;384516;-75
2021/01/21 05:29:47;;;;;;;1.03;0.60;;;;;;;4.28;99.19;97399.97;3847437;76;388999;-75
2021/01/21 05:35:09;;;;;;;0.80;0.47;;;;;;;4.00;100.00;97388.67;3826003;76;383804;-74
2021/01/21 05:40:30;;;;;;;1.33;1.00;;;;;;;4.15;100.00;97391.49;3791577;77;383637;-75
2021/01/21 05:45:52;;;;;;;0.80;0.40;;;;;;;4.16;100.00;97380.80;3791819;77;383932;-75
2021/01/21 05:51:13;;;;;;;0.90;0.60;;;;;;;4.33;97.92;97381.27;3791899;77;385920;-75
2021/01/21 05:56:35;;;;;;;1.00;0.70;;;;;;;5.03;90.30;97389.66;3791470;77;386596;-75
2021/01/21 06:01:57;;;;;;;0.90;0.70;;;;;;;5.10;89.01;97398.33;3790938;77;389819;-75
2021/01/21 06:07:24;;;;;;;0.80;0.40;;;;;;;5.01;89.56;97399.39;3776044;77;383585;-76
2021/01/21 06:12:46;;;;;;;5.07;1.47;;;;;;;4.75;92.62;97403.51;3914366;74;386764;-75
2021/01/21 06:18:07;;;;;;;0.90;0.60;;;;;;;5.00;90.28;97401.95;3913082;75;383588;-76
2021/01/21 06:23:33;;;;;;;0.90;0.70;;;;;;;5.06;89.47;97402.45;3912983;75;391914;-75
2021/01/21 06:28:57;;;;;;;1.10;0.80;;;;;;;5.00;90.53;97411.48;3914634;74;387790;-76
2021/01/21 06:34:21;;;;;;;1.63;1.23;;;;;;;4.93;91.57;97417.77;3916148;74;396045;-75
2021/01/21 06:40:02;;;;;;;0.80;0.50;;;;;;;4.67;93.40;97411.36;3935168;74;383836;-76
2021/01/21 06:45:24;;;;;;;1.00;0.73;;;;;;;4.61;94.49;97406.92;3935259;74;383580;-76
2021/01/21 06:50:47;;;;;;;1.10;0.80;;;;;;;4.55;94.86;97401.72;3935156;74;384503;-76
2021/01/21 06:56:08;;;;;;;2.03;1.60;;;;;;;4.66;93.51;97391.53;3933959;74;396131;-76
2021/01/21 07:01:37;;;;;;;1.10;1.00;;;;;;;4.81;90.73;97396.45;3935301;73;383537;-75
2021/01/21 07:07:08;;;;;;;1.17;1.07;;;;;;;4.82;90.86;97382.25;3934680;73;383580;-76
2021/01/21 07:12:28;;;;;;;0.80;0.50;;;;;;;4.92;88.46;97371.86;3935376;74;383577;-76
2021/01/21 07:17:51;;;;;;;0.80;0.60;;;;;;;4.87;89.76;97364.11;3935191;73;383804;-76
2021/01/21 07:23:14;;;;;;;0.80;0.50;;;;;;;4.92;88.77;97366.41;3935333;74;383592;-76
2021/01/21 07:28:38;;;;;;;0.90;0.50;;;;;;;5.29;85.15;97358.23;3935070;73;383556;-75
2021/01/21 07:34:24;;;;;;;0.80;0.50;;;;;;;5.81;81.67;97367.98;3935057;74;384522;-76
2021/01/21 07:39:56;;;;;;;0.80;0.40;;;;;;;6.15;78.74;97372.77;3935288;73;383545;-75
2021/01/21 07:45:24;;;;;;;0.90;0.60;;;;;;;6.09;79.23;97369.55;3935271;73;384550;-76
2021/01/21 07:50:45;;;;;;;13.17;0.70;;;;;;;5.94;80.60;97374.42;3935114;73;383598;-76
2021/01/21 07:56:06;;;;;;;2.90;0.90;;;;;;;6.06;80.40;97376.59;3934816;73;384498;-76
2021/01/21 08:01:27;;;;;;;0.90;0.50;;;;;;;6.42;78.31;97370.81;3935246;74;384534;-76
2021/01/21 08:06:56;;;;;;;0.80;0.50;;;;;;;6.85;76.10;97374.44;3935199;74;384523;-76
2021/01/21 08:12:17;;;;;;;1.00;0.60;;;;;;;7.48;69.59;97374.05;3934921;74;388691;-76
2021/01/21 08:17:38;;;;;;;1.63;1.00;;;;;;;7.85;64.98;97375.84;3934447;74;396020;-76
2021/01/21 08:23:01;;;;;;;0.80;0.50;;;;;;;8.22;63.62;97386.45;3935252;74;383844;-77
2021/01/21 08:28:28;;;;;;;0.90;0.70;;;;;;;8.68;61.32;97386.97;3935211;73;383844;-77
2021/01/21 08:33:53;;;;;;;0.90;0.60;;;;;;;8.83;62.67;97384.81;3935200;74;384542;-76
2021/01/21 08:39:15;;;;;;;0.80;0.40;;;;;;;8.83;63.61;97377.95;3917086;74;383546;-76
2021/01/21 08:44:36;;;;;;;1.00;0.60;;;;;;;8.94;64.71;97377.11;3912895;74;388914;-77
2021/01/21 08:49:57;;;;;;;0.97;0.73;;;;;;;9.06;65.63;97385.24;3912455;74;389830;-77
2021/01/21 08:55:18;;;;;;;0.80;0.40;;;;;;;9.23;64.58;97386.16;3915061;75;383529;-77
2021/01/21 09:00:41;;;;;;;1.10;0.70;;;;;;;9.16;65.52;97367.75;3914881;74;387946;-77
2021/01/21 09:06:04;;;;;;;0.90;0.70;;;;;;;9.43;64.33;97368.20;3915196;74;384546;-77
2021/01/21 09:11:34;;;;;;;0.90;0.57;;;;;;;9.67;63.46;97361.44;3884840;75;384786;-76
2021/01/21 09:16:56;;;;;;;1.43;0.70;;;;;;;9.73;63.18;97365.80;3914815;75;386690;-76
2021/01/21 09:22:22;;;;;;;1.00;0.73;;;;;;;9.79;62.78;97360.72;3913284;74;383631;-77
2021/01/21 09:27:42;;;;;;;1.20;0.70;;;;;;;9.73;63.53;97369.91;3914856;74;388709;-77
2021/01/21 09:33:03;;;;;;;0.80;0.50;;;;;;;9.69;63.68;97380.23;3915077;74;384538;-77
2021/01/21 09:38:24;;;;;;;1.20;0.80;;;;;;;10.39;61.48;97381.13;3926720;74;393985;-77
2021/01/21 09:43:45;;;;;;;0.80;0.40;;;;;;;10.90;60.83;97386.02;3935456;74;384752;-77
2021/01/21 09:49:07;;;;;;;1.30;0.53;;;;;;;11.02;60.74;97379.13;3935255;73;384538;-77
2021/01/21 09:54:29;;;;;;;1.00;0.50;;;;;;;11.17;61.14;97377.44;3934950;73;388708;-77
2021/01/21 09:59:50;;;;;;;0.80;0.40;;;;;;;11.02;62.82;97392.88;3935456;74;384513;-77
2021/01/21 10:05:13;;;;;;;1.17;0.60;;;;;;;11.26;62.28;97387.16;3935258;74;384523;-77
2021/01/21 10:10:35;;;;;;;1.30;0.50;;;;;;;11.77;61.47;97374.80;3935218;73;383576;-77
2021/01/21 10:15:57;;;;;;;0.80;0.50;;;;;;;12.18;61.28;97386.25;3935332;74;384506;-77
2021/01/21 10:21:19;;;;;;;0.90;0.60;;;;;;;12.15;62.56;97387.92;3935425;74;384535;-77
2021/01/21 10:26:40;;;;;;;0.90;0.50;;;;;;;11.75;64.16;97391.00;3935397;74;383781;-77
2021/01/21 10:32:02;;;;;;;1.10;0.70;;;;;;;11.37;66.29;97394.47;3935040;74;386594;-77
2021/01/21 10:37:23;;;;;;;1.10;0.70;;;;;;;11.29;68.25;97412.44;3937239;74;388011;-77
2021/01/21 10:42:44;;;;;;;0.90;0.57;;;;;;;11.21;68.54;97426.27;3941046;74;384747;-77
2021/01/21 10:48:06;;;;;;;1.00;0.60;;;;;;;11.18;69.69;97434.02;3940760;74;386904;-77
2021/01/21 10:53:27;;;;;;;1.20;0.60;;;;;;;11.10;70.63;97430.72;3940777;74;385682;-77
2021/01/21 10:58:48;;;;;;;2.40;0.50;;;;;;;11.16;72.03;97436.44;3940781;74;388679;-77
2021/01/21 11:04:09;;;;;;;0.80;0.50;;;;;;;11.17;73.61;97430.52;3943305;74;384836;-77
2021/01/21 11:09:35;;;;;;;0.80;0.40;;;;;;;11.63;72.84;97426.26;3943251;74;383773;-77
2021/01/21 11:14:55;;;;;;;1.30;0.80;;;;;;;11.36;72.13;97436.36;3942826;74;388778;-77
2021/01/21 11:20:17;;;;;;;0.87;0.53;;;;;;;11.40;73.54;97436.23;3941421;74;384547;-78
2021/01/21 11:25:38;;;;;;;2.40;0.87;;;;;;;11.68;71.55;97436.70;3940420;74;394927;-78
2021/01/21 11:30:59;;;;;;;0.90;0.50;;;;;;;11.78;71.89;97430.06;3941396;74;384513;-77
2021/01/21 11:36:20;;;;;;;0.90;0.67;;;;;;;11.82;72.47;97428.72;3940959;74;384541;-76
2021/01/21 11:41:41;;;;;;;0.80;0.50;;;;;;;11.89;70.72;97435.95;3945435;74;384545;-76
2021/01/21 11:47:03;;;;;;;0.80;0.40;;;;;;;11.91;71.78;97397.11;3947077;74;384534;-77
2021/01/21 11:52:24;;;;;;;0.80;0.40;;;;;;;11.90;72.27;97419.58;3947118;74;384572;-77
2021/01/21 11:57:45;;;;;;;0.90;0.50;;;;;;;11.90;73.38;97403.84;3947080;74;384794;-76
2021/01/21 12:03:06;;;;;;;2.10;0.83;;;;;;;11.82;74.85;97411.41;3946543;73;389791;-76
2021/01/21 12:08:28;;;;;;;1.10;0.60;;;;;;;11.70;74.99;97406.11;3946907;74;383612;-76
2021/01/21 12:13:49;;;;;;;1.03;0.93;;;;;;;11.69;75.54;97391.42;3946429;74;391909;-76
2021/01/21 12:19:10;;;;;;;0.80;0.50;;;;;;;12.05;75.02;97393.84;3947022;74;384872;-76
2021/01/21 12:24:31;;;;;;;0.80;0.40;;;;;;;11.92;75.45;97383.47;3947053;74;383821;-76
2021/01/21 12:29:52;;;;;;;0.90;0.50;;;;;;;11.88;75.26;97403.51;3947107;74;384752;-76
2021/01/21 12:35:14;;;;;;;1.17;1.07;;;;;;;11.88;75.88;97395.83;3946783;74;384530;-76
2021/01/21 12:40:36;;;;;;;0.80;0.50;;;;;;;11.78;75.40;97394.25;3938918;73;384566;-76
2021/01/21 12:45:57;;;;;;;1.73;0.63;;;;;;;11.68;75.68;97399.52;3934870;74;390986;-76
2021/01/21 12:51:18;;;;;;;2.17;0.50;;;;;;;11.58;77.24;97392.39;3934804;74;390979;-76
2021/01/21 12:56:39;;;;;;;1.10;0.63;;;;;;;11.52;77.95;97403.81;3935288;74;384505;-76
2021/01/21 13:02:01;;;;;;;0.80;0.50;;;;;;;11.50;77.00;97391.06;3935525;73;384503;-75
2021/01/21 13:07:22;;;;;;;0.90;0.60;;;;;;;11.45;77.72;97393.02;3935189;73;388659;-76
2021/01/21 13:12:45;;;;;;;1.53;0.73;;;;;;;11.39;78.11;97382.38;3934676;74;390742;-76
2021/01/21 13:18:06;;;;;;;0.90;0.50;;;;;;;11.36;78.11;97390.17;3935251;73;384798;-76
2021/01/21 13:23:27;;;;;;;1.47;0.87;;;;;;;11.36;78.19;97383.30;3934895;74;390787;-76
2021/01/21 13:28:49;;;;;;;0.90;0.53;;;;;;;11.35;78.64;97382.50;3935303;74;384543;-76
2021/01/21 13:34:10;;;;;;;0.80;0.50;;;;;;;11.28;79.28;97387.50;3935454;73;384573;-76
2021/01/21 13:39:33;;;;;;;0.90;0.60;;;;;;;11.20;80.34;97400.72;3935452;74;384610;-76
2021/01/21 13:44:54;;;;;;;0.90;0.50;;;;;;;11.20;81.41;97406.84;3935374;73;388931;-76
2021/01/21 13:50:15;;;;;;;0.90;0.70;;;;;;;10.95;87.66;97409.63;3935452;74;383560;-76
2021/01/21 13:55:36;;;;;;;0.80;0.47;;;;;;;10.41;100.00;97425.45;3935435;74;383541;-76
2021/01/21 14:00:57;;;;;;;0.80;0.40;;;;;;;10.16;100.00;97429.35;3935363;74;384560;-75
2021/01/21 14:06:19;;;;;;;0.90;0.60;;;;;;;10.02;100.00;97459.95;3935434;73;384556;-76
2021/01/21 14:11:40;;;;;;;1.40;0.97;;;;;;;9.28;100.00;97476.20;3934857;74;394001;-76
2021/01/21 14:17:01;;;;;;;0.80;0.50;;;;;;;9.07;100.00;97477.30;3935376;74;384544;-75
2021/01/21 14:22:22;;;;;;;0.80;0.50;;;;;;;8.77;100.00;97487.97;3935327;74;384548;-75
2021/01/21 14:27:43;;;;;;;0.90;0.50;;;;;;;8.45;100.00;97486.33;3935322;74;384545;-76
2021/01/21 14:33:05;;;;;;;0.80;0.40;;;;;;;8.43;100.00;97494.20;3935365;74;384556;-75
2021/01/21 14:38:26;;;;;;;0.90;0.47;;;;;;;8.33;100.00;97486.96;3934384;74;384562;-75
2021/01/21 14:43:47;;;;;;;0.80;0.50;;;;;;;8.10;100.00;97491.91;3915090;75;384566;-75
2021/01/21 14:49:08;;;;;;;0.80;0.40;;;;;;;8.15;100.00;97507.11;3915317;74;384499;-76
2021/01/21 14:54:31;;;;;;;0.80;0.50;;;;;;;8.13;100.00;97520.42;3915197;74;384542;-75
2021/01/21 14:59:52;;;;;;;0.80;0.50;;;;;;;8.13;100.00;97516.31;3914965;75;384794;-75
2021/01/21 15:05:13;;;;;;;0.90;0.50;;;;;;;7.99;100.00;97526.92;3915058;74;384547;-76
2021/01/21 15:10:35;;;;;;;0.80;0.50;;;;;;;7.86;100.00;97523.84;3914963;75;384542;-76
2021/01/21 15:15:56;;;;;;;1.30;1.20;;;;;;;7.78;100.00;97516.95;3912792;75;392931;-79
2021/01/21 15:21:17;;;;;;;0.80;0.40;;;;;;;7.71;100.00;97504.77;3913309;75;384845;-77
2021/01/21 15:26:39;;;;;;;0.80;0.40;;;;;;;7.78;100.00;97512.84;3912910;75;385532;-77
2021/01/21 15:32:00;;;;;;;0.80;0.40;;;;;;;7.87;100.00;97529.50;3913162;75;384550;-76
2021/01/21 15:37:21;;;;;;;0.80;0.40;;;;;;;7.81;100.00;97535.29;3913123;74;384562;-77
2021/01/21 15:42:42;;;;;;;0.80;0.40;;;;;;;7.82;100.00;97525.10;3914997;74;383861;-77
2021/01/21 15:48:03;;;;;;;1.20;1.10;;;;;;;7.82;100.00;97527.26;3914791;74;384554;-77
2021/01/21 15:53:25;;;;;;;2.40;1.07;;;;;;;7.77;100.00;97524.98;3912144;75;395046;-76
2021/01/21 15:58:46;;;;;;;0.80;0.50;;;;;;;7.69;100.00;97530.41;3912778;75;384578;-77
2021/01/21 16:04:09;;;;;;;0.90;0.60;;;;;;;7.67;100.00;97519.13;3914916;75;385660;-77
2021/01/21 16:09:30;;;;;;;0.90;0.60;;;;;;;7.58;100.00;97513.42;3913089;74;384552;-77
2021/01/21 16:14:51;;;;;;;0.80;0.40;;;;;;;7.54;100.00;97510.56;3912786;75;384538;-77
2021/01/21 16:20:14;;;;;;;0.80;0.40;;;;;;;7.49;100.00;97500.08;3914944;74;384552;-77
2021/01/21 16:25:35;;;;;;;0.80;0.40;;;;;;;7.51;100.00;97501.20;3915090;75;384523;-78
2021/01/21 16:30:57;;;;;;;0.80;0.40;;;;;;;7.48;100.00;97494.42;3912830;75;384502;-77
2021/01/21 16:36:18;;;;;;;0.87;0.57;;;;;;;7.44;100.00;97495.09;3912886;75;384827;-77
2021/01/21 16:41:39;;;;;;;0.90;0.60;;;;;;;7.30;100.00;97495.34;3922128;74;384782;-77
2021/01/21 16:47:00;;;;;;;0.80;0.60;;;;;;;7.20;100.00;97483.36;3935245;73;384799;-78
2021/01/21 16:52:22;;;;;;;0.80;0.40;;;;;;;7.18;100.00;97490.44;3935231;74;384518;-77
2021/01/21 16:57:43;;;;;;;0.80;0.47;;;;;;;7.18;100.00;97477.56;3935231;74;383781;-77
2021/01/21 17:03:06;;;;;;;0.90;0.50;;;;;;;7.20;100.00;97465.59;3935233;74;383806;-77
2021/01/21 17:08:27;;;;;;;0.90;0.57;;;;;;;7.13;100.00;97458.11;3935222;74;384981;-77
2021/01/21 17:13:48;;;;;;;0.87;0.53;;;;;;;7.29;100.00;97452.77;3935239;74;384504;-76
2021/01/21 17:19:09;;;;;;;0.80;0.50;;;;;;;7.26;100.00;97449.48;3935318;74;383832;-78
2021/01/21 17:24:30;;;;;;;0.90;0.50;;;;;;;7.11;100.00;97444.69;3935471;73;383584;-76
2021/01/21 17:29:51;;;;;;;0.80;0.40;;;;;;;7.14;100.00;97439.91;3935427;74;384534;-77
2021/01/21 17:35:12;;;;;;;0.80;0.50;;;;;;;7.00;100.00;97445.44;3935411;74;384517;-77
2021/01/21 17:40:34;;;;;;;0.80;0.40;;;;;;;7.01;100.00;97448.36;3935350;74;384523;-77
2021/01/21 17:45:55;;;;;;;1.13;1.03;;;;;;;6.97;100.00;97441.58;3934968;74;384512;-78
2021/01/21 17:51:16;;;;;;;0.80;0.50;;;;;;;6.80;100.00;97426.23;3935695;73;384513;-78
2021/01/21 17:56:37;;;;;;;1.63;0.70;;;;;;;6.77;100.00;97415.36;3935007;74;384510;-77
2021/01/21 18:01:59;;;;;;;0.90;0.50;;;;;;;6.87;100.00;97400.16;3935391;74;384545;-77
2021/01/21 18:07:21;;;;;;;0.80;0.40;;;;;;;6.85;100.00;97394.32;3935451;74;384529;-77
2021/01/21 18:12:42;;;;;;;0.80;0.57;;;;;;;6.78;100.00;97378.66;3935450;74;383805;-77
2021/01/21 18:18:06;;;;;;;0.90;0.70;;;;;;;6.66;100.00;97366.92;3935338;74;384767;-77
2021/01/21 18:23:27;;;;;;;2.30;2.20;;;;;;;6.54;100.00;97366.16;3934845;74;383778;-76
2021/01/21 18:28:48;;;;;;;0.80;0.50;;;;;;;6.42;100.00;97368.84;3935312;73;384575;-77
2021/01/21 18:34:09;;;;;;;0.80;0.50;;;;;;;6.36;100.00;97365.64;3935362;74;384582;-77
2021/01/21 18:39:30;;;;;;;1.87;0.73;;;;;;;6.31;100.00;97360.63;3934841;74;390792;-76
2021/01/21 18:44:51;;;;;;;1.83;1.17;;;;;;;6.36;100.00;97347.90;3916751;74;396069;-76
2021/01/21 18:50:13;;;;;;;3.43;0.93;;;;;;;6.30;100.00;97329.05;3912412;75;390142;-76
2021/01/21 18:55:34;;;;;;;1.50;0.90;;;;;;;6.28;100.00;97312.91;3914841;74;384605;-77
2021/01/21 19:00:56;;;;;;;0.80;0.40;;;;;;;6.31;100.00;97302.53;3912945;74;385539;-76
2021/01/21 19:06:17;;;;;;;2.03;1.87;;;;;;;6.20;100.00;97294.52;3913897;74;394970;-76
2021/01/21 19:11:38;;;;;;;1.70;0.90;;;;;;;6.12;100.00;97291.72;3912873;75;384571;-76
2021/01/21 19:17:00;;;;;;;0.97;0.70;;;;;;;6.06;100.00;97289.85;3912984;74;384549;-76
2021/01/21 19:22:21;;;;;;;0.93;0.70;;;;;;;6.15;100.00;97293.59;3912802;74;387731;-76
2021/01/21 19:27:44;;;;;;;1.40;1.30;;;;;;;6.37;100.00;97288.00;3912540;75;388702;-76
2021/01/21 19:33:05;;;;;;;1.13;1.03;;;;;;;6.33;100.00;97281.24;3912461;75;386586;-76
2021/01/21 19:38:26;;;;;;;1.90;1.60;;;;;;;6.38;100.00;97280.00;3911681;75;396085;-76
2021/01/21 19:43:48;;;;;;;3.70;1.73;;;;;;;6.37;100.00;97272.98;3927401;74;396083;-76
2021/01/21 19:49:09;;;;;;;4.23;3.20;;;;;;;6.31;100.00;97265.67;3929495;74;397042;-76
2021/01/21 19:54:30;;;;;;;1.63;1.53;;;;;;;6.25;100.00;97240.80;3828351;76;396326;-76
2021/01/21 19:59:51;;;;;;;1.67;1.40;;;;;;;6.32;100.00;97228.39;3927600;75;397046;-76
2021/01/21 20:05:13;;;;;;;2.33;1.67;;;;;;;6.50;100.00;97224.77;3828209;76;396000;-76
2021/01/21 20:10:35;;;;;;;5.10;1.03;;;;;;;6.59;100.00;97224.39;3928101;75;394225;-76
2021/01/21 20:15:56;;;;;;;1.30;0.67;;;;;;;6.59;100.00;97217.56;3828518;76;391855;-76
2021/01/21 20:21:17;;;;;;;1.67;1.07;;;;;;;6.65;100.00;97208.30;3927617;75;388757;-76
2021/01/21 20:26:38;;;;;;;0.90;0.70;;;;;;;6.93;100.00;97192.73;3829202;76;384549;-76
2021/01/21 20:31:59;;;;;;;0.87;0.60;;;;;;;6.97;100.00;97175.66;3928739;75;384608;-76
2021/01/21 20:37:20;;;;;;;1.40;1.30;;;;;;;6.97;100.00;97159.27;3828240;76;396052;-76
2021/01/21 20:42:42;;;;;;;1.20;0.83;;;;;;;6.99;100.00;97156.88;3927983;74;392890;-76
2021/01/21 20:48:03;;;;;;;1.93;1.10;;;;;;;7.04;100.00;97150.91;3828388;76;388750;-76
2021/01/21 20:53:24;;;;;;;2.70;2.10;;;;;;;6.97;100.00;97145.02;3927452;75;398267;-77
2021/01/21 20:58:46;;;;;;;2.20;1.30;;;;;;;7.10;100.00;97146.52;3828761;76;392898;-76
2021/01/21 21:04:07;;;;;;;2.40;1.43;;;;;;;7.13;100.00;97144.45;3928101;75;395016;-76
2021/01/21 21:09:28;;;;;;;1.77;0.70;;;;;;;7.29;100.00;97115.78;3828834;76;393985;-76
2021/01/21 21:14:50;;;;;;;1.83;1.33;;;;;;;7.42;100.00;97113.94;3927471;75;394333;-76
2021/01/21 21:20:11;;;;;;;0.90;0.60;;;;;;;7.57;100.00;97111.63;3829351;76;383580;-76
2021/01/21 21:25:33;;;;;;;0.90;0.73;;;;;;;7.92;100.00;97119.75;3928679;75;391907;-77
2021/01/21 21:30:54;;;;;;;0.97;0.67;;;;;;;8.36;100.00;97120.41;3829116;76;387792;-76
2021/01/21 21:36:15;;;;;;;0.93;0.60;;;;;;;8.39;100.00;97114.84;3928916;75;384544;-77
2021/01/21 21:41:36;;;;;;;3.13;1.30;;;;;;;8.52;100.00;97121.73;3828256;76;397036;-77
2021/01/21 21:46:58;;;;;;;0.90;0.70;;;;;;;8.94;100.00;97135.02;3932550;74;384950;-76
2021/01/21 21:52:19;;;;;;;1.70;1.10;;;;;;;8.92;100.00;97142.33;3934185;73;386101;-77
2021/01/21 21:57:40;;;;;;;1.13;0.73;;;;;;;8.80;100.00;97140.91;3934360;74;389921;-78
2021/01/21 22:03:01;;;;;;;0.90;0.77;;;;;;;8.61;100.00;97128.13;3934703;73;384503;-78
2021/01/21 22:08:22;;;;;;;0.90;0.50;;;;;;;8.49;100.00;97127.48;3934808;74;384751;-77
2021/01/21 22:13:43;;;;;;;1.40;0.80;;;;;;;8.44;100.00;97108.82;3934070;73;392869;-77
2021/01/21 22:19:05;;;;;;;1.00;0.70;;;;;;;8.40;100.00;97091.72;3934215;74;388664;-77
2021/01/21 22:24:26;;;;;;;1.07;0.97;;;;;;;8.46;100.00;97075.53;3934541;74;384548;-77
2021/01/21 22:29:47;;;;;;;0.93;0.83;;;;;;;8.73;100.00;97068.48;3934659;73;383796;-77
2021/01/21 22:35:09;;;;;;;0.80;0.50;;;;;;;8.87;100.00;97063.36;3934720;73;383545;-77
2021/01/21 22:40:30;;;;;;;0.90;0.57;;;;;;;8.96;100.00;97071.72;3934815;74;383968;-77
2021/01/21 22:45:51;;;;;;;1.00;0.70;;;;;;;9.17;100.00;97055.20;3934532;74;388686;-77
2021/01/21 22:51:12;;;;;;;1.20;0.90;;;;;;;9.36;100.00;97041.28;3933949;73;393126;-77
2021/01/21 22:56:34;;;;;;;1.40;0.67;;;;;;;9.48;100.00;97074.04;3933923;74;390750;-78
2021/01/21 23:01:55;;;;;;;1.10;0.50;;;;;;;9.32;100.00;97096.86;3934408;74;388659;-79
2021/01/21 23:07:17;;;;;;;0.80;0.40;;;;;;;9.05;100.00;97104.72;3934775;73;383591;-79
2021/01/21 23:12:38;;;;;;;0.90;0.50;;;;;;;8.85;100.00;97093.77;3934727;73;384526;-78
2021/01/21 23:17:59;;;;;;;1.23;0.77;;;;;;;8.64;100.00;97082.05;3934376;74;384562;-78
2021/01/21 23:23:20;;;;;;;0.80;0.60;;;;;;;8.93;100.00;97059.45;3934681;74;384607;-78
2021/01/21 23:28:41;;;;;;;0.90;0.60;;;;;;;8.96;100.00;97052.52;3934580;73;387583;-77
2021/01/21 23:34:06;;;;;;;0.80;0.47;;;;;;;9.10;100.00;97054.05;3934697;73;385527;-77
2021/01/21 23:39:27;;;;;;;1.67;0.93;;;;;;;9.03;100.00;97046.82;3933612;74;394962;-77
2021/01/21 23:44:48;;;;;;;0.90;0.50;;;;;;;8.86;100.00;97042.63;3936674;73;384600;-76
2021/01/21 23:50:09;;;;;;;0.90;0.60;;;;;;;8.84;100.00;97029.95;3942403;74;384548;-76
2021/01/21 23:55:30;;;;;;;1.00;0.60;;;;;;;8.71;100.00;97002.36;3941958;74;390074;-77
